sensor_id;sensor_type;location;lat;lon;timestamp;P1;durP1;ratioP1;P2;durP2;ratioP2
25153;SDS011;47555;51.038;6.280;2023-12-07T00:00:30;22.17;;;12.70;;
25153;SDS011;47555;51.038;6.280;2023-12-07T00:02:56;26.08;;;11.93;;
25153;SDS011;47555;51.038;6.280;2023-12-07T00:05:22;26.00;;;13.05;;
25153;SDS011;47555;51.038;6.280;2023-12-07T00:07:48;20.40;;;11.93;;
25153;SDS011;47555;51.038;6.280;2023-12-07T00:10:14;23.17;;;12.25;;
25153;SDS011;47555;51.038;6.280;2023-12-07T00:12:40;25.60;;;12.70;;
25153;SDS011;47555;51.038;6.280;2023-12-07T00:15:06;22.63;;;12.23;;
25153;SDS011;47555;51.038;6.280;2023-12-07T00:17:32;21.83;;;12.75;;
25153;SDS011;47555;51.038;6.280;2023-12-07T00:19:58;19.48;;;11.65;;
25153;SDS011;47555;51.038;6.280;2023-12-07T00:22:24;25.38;;;13.65;;
25153;SDS011;47555;51.038;6.280;2023-12-07T00:24:51;23.88;;;12.35;;
25153;SDS011;47555;51.038;6.280;2023-12-07T00:27:17;24.77;;;12.25;;
25153;SDS011;47555;51.038;6.280;2023-12-07T00:29:43;22.58;;;12.40;;
25153;SDS011;47555;51.038;6.280;2023-12-07T00:32:09;22.42;;;12.48;;
25153;SDS011;47555;51.038;6.280;2023-12-07T00:34:35;20.05;;;11.68;;
25153;SDS011;47555;51.038;6.280;2023-12-07T00:37:01;21.40;;;11.68;;
25153;SDS011;47555;51.038;6.280;2023-12-07T00:39:28;21.20;;;11.65;;
25153;SDS011;47555;51.038;6.280;2023-12-07T00:41:54;19.83;;;11.68;;
25153;SDS011;47555;51.038;6.280;2023-12-07T00:44:20;25.85;;;11.77;;
25153;SDS011;47555;51.038;6.280;2023-12-07T00:46:46;25.13;;;11.70;;
25153;SDS011;47555;51.038;6.280;2023-12-07T00:49:12;21.20;;;11.52;;
25153;SDS011;47555;51.038;6.280;2023-12-07T00:51:37;23.92;;;12.20;;
25153;SDS011;47555;51.038;6.280;2023-12-07T00:54:03;22.77;;;12.43;;
25153;SDS011;47555;51.038;6.280;2023-12-07T00:56:29;24.38;;;13.20;;
25153;SDS011;47555;51.038;6.280;2023-12-07T00:58:55;21.83;;;12.45;;
25153;SDS011;47555;51.038;6.280;2023-12-07T01:01:21;21.63;;;11.32;;
25153;SDS011;47555;51.038;6.280;2023-12-07T01:03:47;25.20;;;12.52;;
25153;SDS011;47555;51.038;6.280;2023-12-07T01:06:13;20.98;;;11.38;;
25153;SDS011;47555;51.038;6.280;2023-12-07T01:08:41;22.92;;;12.27;;
25153;SDS011;47555;51.038;6.280;2023-12-07T01:11:08;25.35;;;12.73;;
25153;SDS011;47555;51.038;6.280;2023-12-07T01:13:34;22.52;;;12.05;;
25153;SDS011;47555;51.038;6.280;2023-12-07T01:16:01;23.33;;;11.55;;
25153;SDS011;47555;51.038;6.280;2023-12-07T01:18:27;24.42;;;12.35;;
25153;SDS011;47555;51.038;6.280;2023-12-07T01:20:53;23.52;;;12.05;;
25153;SDS011;47555;51.038;6.280;2023-12-07T01:23:19;26.10;;;13.43;;
25153;SDS011;47555;51.038;6.280;2023-12-07T01:25:45;23.88;;;12.48;;
25153;SDS011;47555;51.038;6.280;2023-12-07T01:28:11;21.38;;;11.88;;
25153;SDS011;47555;51.038;6.280;2023-12-07T01:30:37;26.40;;;13.13;;
25153;SDS011;47555;51.038;6.280;2023-12-07T01:33:03;25.40;;;13.55;;
25153;SDS011;47555;51.038;6.280;2023-12-07T01:35:29;29.17;;;13.90;;
25153;SDS011;47555;51.038;6.280;2023-12-07T01:37:55;25.40;;;13.35;;
25153;SDS011;47555;51.038;6.280;2023-12-07T01:40:21;23.00;;;13.15;;
25153;SDS011;47555;51.038;6.280;2023-12-07T01:42:50;27.60;;;14.13;;
25153;SDS011;47555;51.038;6.280;2023-12-07T01:45:16;28.90;;;13.13;;
25153;SDS011;47555;51.038;6.280;2023-12-07T01:47:42;30.23;;;15.00;;
25153;SDS011;47555;51.038;6.280;2023-12-07T01:50:10;24.67;;;13.32;;
25153;SDS011;47555;51.038;6.280;2023-12-07T01:52:36;22.90;;;13.70;;
25153;SDS011;47555;51.038;6.280;2023-12-07T01:55:04;27.25;;;13.48;;
25153;SDS011;47555;51.038;6.280;2023-12-07T01:57:30;24.23;;;12.55;;
25153;SDS011;47555;51.038;6.280;2023-12-07T01:59:56;25.40;;;12.43;;
25153;SDS011;47555;51.038;6.280;2023-12-07T02:02:22;27.42;;;13.27;;
25153;SDS011;47555;51.038;6.280;2023-12-07T02:04:48;29.13;;;13.65;;
25153;SDS011;47555;51.038;6.280;2023-12-07T02:07:14;28.67;;;13.38;;
25153;SDS011;47555;51.038;6.280;2023-12-07T02:09:40;27.30;;;14.48;;
25153;SDS011;47555;51.038;6.280;2023-12-07T02:12:07;29.35;;;13.95;;
25153;SDS011;47555;51.038;6.280;2023-12-07T02:14:33;27.00;;;14.40;;
25153;SDS011;47555;51.038;6.280;2023-12-07T02:17:02;26.30;;;13.15;;
25153;SDS011;47555;51.038;6.280;2023-12-07T02:19:52;30.60;;;15.23;;
25153;SDS011;47555;51.038;6.280;2023-12-07T02:25:14;30.77;;;14.32;;
25153;SDS011;47555;51.038;6.280;2023-12-07T02:27:43;32.80;;;15.60;;
25153;SDS011;47555;51.038;6.280;2023-12-07T02:30:12;32.53;;;15.43;;
25153;SDS011;47555;51.038;6.280;2023-12-07T02:32:39;30.05;;;15.02;;
25153;SDS011;47555;51.038;6.280;2023-12-07T02:35:06;29.58;;;14.45;;
25153;SDS011;47555;51.038;6.280;2023-12-07T02:37:34;35.25;;;15.95;;
25153;SDS011;47555;51.038;6.280;2023-12-07T02:40:02;33.90;;;16.23;;
25153;SDS011;47555;51.038;6.280;2023-12-07T02:42:29;31.20;;;16.00;;
25153;SDS011;47555;51.038;6.280;2023-12-07T02:44:56;31.83;;;16.63;;
25153;SDS011;47555;51.038;6.280;2023-12-07T02:47:22;32.63;;;16.45;;
25153;SDS011;47555;51.038;6.280;2023-12-07T02:49:48;33.10;;;15.45;;
25153;SDS011;47555;51.038;6.280;2023-12-07T02:52:14;29.45;;;15.30;;
25153;SDS011;47555;51.038;6.280;2023-12-07T02:54:40;30.25;;;14.38;;
25153;SDS011;47555;51.038;6.280;2023-12-07T02:57:06;30.73;;;15.55;;
25153;SDS011;47555;51.038;6.280;2023-12-07T02:59:32;27.65;;;14.00;;
25153;SDS011;47555;51.038;6.280;2023-12-07T03:01:58;30.33;;;14.45;;
25153;SDS011;47555;51.038;6.280;2023-12-07T03:04:24;33.03;;;15.00;;
25153;SDS011;47555;51.038;6.280;2023-12-07T03:06:49;31.33;;;15.00;;
25153;SDS011;47555;51.038;6.280;2023-12-07T03:09:15;31.65;;;14.93;;
25153;SDS011;47555;51.038;6.280;2023-12-07T03:11:41;37.63;;;15.95;;
25153;SDS011;47555;51.038;6.280;2023-12-07T03:14:07;31.30;;;15.90;;
25153;SDS011;47555;51.038;6.280;2023-12-07T03:16:33;36.50;;;18.75;;
25153;SDS011;47555;51.038;6.280;2023-12-07T03:19:00;38.80;;;16.67;;
25153;SDS011;47555;51.038;6.280;2023-12-07T03:21:27;34.38;;;16.75;;
25153;SDS011;47555;51.038;6.280;2023-12-07T03:23:52;34.67;;;15.02;;
25153;SDS011;47555;51.038;6.280;2023-12-07T03:26:18;33.50;;;16.42;;
25153;SDS011;47555;51.038;6.280;2023-12-07T03:28:44;36.78;;;16.58;;
25153;SDS011;47555;51.038;6.280;2023-12-07T03:31:10;33.58;;;16.50;;
25153;SDS011;47555;51.038;6.280;2023-12-07T03:33:36;32.58;;;15.63;;
25153;SDS011;47555;51.038;6.280;2023-12-07T03:36:03;35.80;;;17.30;;
25153;SDS011;47555;51.038;6.280;2023-12-07T03:38:30;35.85;;;15.48;;
25153;SDS011;47555;51.038;6.280;2023-12-07T03:40:56;33.75;;;16.75;;
25153;SDS011;47555;51.038;6.280;2023-12-07T03:43:22;34.67;;;16.48;;
25153;SDS011;47555;51.038;6.280;2023-12-07T03:45:48;37.88;;;17.88;;
25153;SDS011;47555;51.038;6.280;2023-12-07T03:48:13;34.63;;;16.85;;
25153;SDS011;47555;51.038;6.280;2023-12-07T03:50:39;32.08;;;16.05;;
25153;SDS011;47555;51.038;6.280;2023-12-07T03:53:05;29.35;;;13.48;;
25153;SDS011;47555;51.038;6.280;2023-12-07T03:55:31;27.55;;;14.00;;
25153;SDS011;47555;51.038;6.280;2023-12-07T03:57:57;28.65;;;14.60;;
25153;SDS011;47555;51.038;6.280;2023-12-07T04:00:23;29.70;;;15.40;;
25153;SDS011;47555;51.038;6.280;2023-12-07T04:02:49;29.65;;;15.45;;
25153;SDS011;47555;51.038;6.280;2023-12-07T04:05:15;33.22;;;16.40;;
25153;SDS011;47555;51.038;6.280;2023-12-07T04:07:41;37.38;;;16.55;;
25153;SDS011;47555;51.038;6.280;2023-12-07T04:10:07;32.75;;;14.80;;
25153;SDS011;47555;51.038;6.280;2023-12-07T04:12:33;32.70;;;15.00;;
25153;SDS011;47555;51.038;6.280;2023-12-07T04:14:59;31.33;;;15.00;;
25153;SDS011;47555;51.038;6.280;2023-12-07T04:17:25;30.52;;;14.57;;
25153;SDS011;47555;51.038;6.280;2023-12-07T04:19:51;32.08;;;15.93;;
25153;SDS011;47555;51.038;6.280;2023-12-07T04:22:17;32.30;;;16.20;;
25153;SDS011;47555;51.038;6.280;2023-12-07T04:24:43;33.38;;;15.43;;
25153;SDS011;47555;51.038;6.280;2023-12-07T04:27:09;34.88;;;16.00;;
25153;SDS011;47555;51.038;6.280;2023-12-07T04:29:35;33.72;;;17.50;;
25153;SDS011;47555;51.038;6.280;2023-12-07T04:32:01;33.60;;;16.27;;
25153;SDS011;47555;51.038;6.280;2023-12-07T04:34:27;30.92;;;15.30;;
25153;SDS011;47555;51.038;6.280;2023-12-07T04:36:53;31.65;;;15.32;;
25153;SDS011;47555;51.038;6.280;2023-12-07T04:39:19;42.80;;;18.05;;
25153;SDS011;47555;51.038;6.280;2023-12-07T04:41:45;40.97;;;18.25;;
25153;SDS011;47555;51.038;6.280;2023-12-07T04:44:11;36.15;;;17.05;;
25153;SDS011;47555;51.038;6.280;2023-12-07T04:46:37;42.40;;;16.70;;
25153;SDS011;47555;51.038;6.280;2023-12-07T04:49:02;46.53;;;18.33;;
25153;SDS011;47555;51.038;6.280;2023-12-07T04:51:28;34.67;;;17.60;;
25153;SDS011;47555;51.038;6.280;2023-12-07T04:53:54;34.88;;;15.63;;
25153;SDS011;47555;51.038;6.280;2023-12-07T04:56:20;35.30;;;17.52;;
25153;SDS011;47555;51.038;6.280;2023-12-07T04:58:46;33.65;;;15.15;;
25153;SDS011;47555;51.038;6.280;2023-12-07T05:01:12;36.80;;;15.40;;
25153;SDS011;47555;51.038;6.280;2023-12-07T05:03:38;36.53;;;15.65;;
25153;SDS011;47555;51.038;6.280;2023-12-07T05:06:04;31.83;;;14.35;;
25153;SDS011;47555;51.038;6.280;2023-12-07T05:08:30;30.55;;;14.40;;
25153;SDS011;47555;51.038;6.280;2023-12-07T05:10:56;32.38;;;15.43;;
25153;SDS011;47555;51.038;6.280;2023-12-07T05:13:22;27.95;;;13.68;;
25153;SDS011;47555;51.038;6.280;2023-12-07T05:15:48;26.95;;;13.45;;
25153;SDS011;47555;51.038;6.280;2023-12-07T05:18:14;25.75;;;13.50;;
25153;SDS011;47555;51.038;6.280;2023-12-07T05:20:40;28.70;;;13.25;;
25153;SDS011;47555;51.038;6.280;2023-12-07T05:23:06;31.52;;;14.55;;
25153;SDS011;47555;51.038;6.280;2023-12-07T05:25:32;28.90;;;12.38;;
25153;SDS011;47555;51.038;6.280;2023-12-07T05:27:58;25.40;;;12.85;;
25153;SDS011;47555;51.038;6.280;2023-12-07T05:30:24;30.05;;;13.98;;
25153;SDS011;47555;51.038;6.280;2023-12-07T05:32:50;26.70;;;13.98;;
25153;SDS011;47555;51.038;6.280;2023-12-07T05:35:17;25.80;;;12.93;;
25153;SDS011;47555;51.038;6.280;2023-12-07T05:37:43;27.02;;;13.73;;
25153;SDS011;47555;51.038;6.280;2023-12-07T05:40:09;31.38;;;15.20;;
25153;SDS011;47555;51.038;6.280;2023-12-07T05:42:37;37.67;;;17.05;;
25153;SDS011;47555;51.038;6.280;2023-12-07T05:45:03;33.95;;;16.08;;
25153;SDS011;47555;51.038;6.280;2023-12-07T05:47:29;39.58;;;18.20;;
25153;SDS011;47555;51.038;6.280;2023-12-07T05:49:55;36.85;;;17.23;;
25153;SDS011;47555;51.038;6.280;2023-12-07T05:52:23;42.72;;;19.35;;
25153;SDS011;47555;51.038;6.280;2023-12-07T05:54:49;62.97;;;19.45;;
25153;SDS011;47555;51.038;6.280;2023-12-07T05:57:15;38.65;;;16.48;;
25153;SDS011;47555;51.038;6.280;2023-12-07T05:59:41;36.15;;;16.40;;
25153;SDS011;47555;51.038;6.280;2023-12-07T06:02:08;31.42;;;15.93;;
25153;SDS011;47555;51.038;6.280;2023-12-07T06:04:34;31.80;;;15.85;;
25153;SDS011;47555;51.038;6.280;2023-12-07T06:07:00;34.60;;;16.17;;
25153;SDS011;47555;51.038;6.280;2023-12-07T06:09:25;31.55;;;15.80;;
25153;SDS011;47555;51.038;6.280;2023-12-07T06:11:51;37.58;;;15.77;;
25153;SDS011;47555;51.038;6.280;2023-12-07T06:14:17;34.38;;;16.13;;
25153;SDS011;47555;51.038;6.280;2023-12-07T06:16:43;28.08;;;15.98;;
25153;SDS011;47555;51.038;6.280;2023-12-07T06:19:09;38.17;;;16.02;;
25153;SDS011;47555;51.038;6.280;2023-12-07T06:21:35;38.25;;;16.60;;
25153;SDS011;47555;51.038;6.280;2023-12-07T06:24:01;40.30;;;16.80;;
25153;SDS011;47555;51.038;6.280;2023-12-07T06:26:27;45.85;;;16.63;;
25153;SDS011;47555;51.038;6.280;2023-12-07T06:28:53;36.28;;;16.85;;
25153;SDS011;47555;51.038;6.280;2023-12-07T06:31:19;32.67;;;15.18;;
25153;SDS011;47555;51.038;6.280;2023-12-07T06:33:46;37.05;;;14.90;;
25153;SDS011;47555;51.038;6.280;2023-12-07T06:36:17;39.63;;;16.52;;
25153;SDS011;47555;51.038;6.280;2023-12-07T06:38:43;39.47;;;15.53;;
25153;SDS011;47555;51.038;6.280;2023-12-07T06:41:09;34.53;;;14.45;;
25153;SDS011;47555;51.038;6.280;2023-12-07T06:43:35;37.90;;;15.15;;
25153;SDS011;47555;51.038;6.280;2023-12-07T06:46:01;32.85;;;14.85;;
25153;SDS011;47555;51.038;6.280;2023-12-07T06:48:27;30.67;;;14.73;;
25153;SDS011;47555;51.038;6.280;2023-12-07T06:50:53;33.85;;;15.52;;
25153;SDS011;47555;51.038;6.280;2023-12-07T06:53:19;35.00;;;15.25;;
25153;SDS011;47555;51.038;6.280;2023-12-07T06:55:44;38.45;;;15.05;;
25153;SDS011;47555;51.038;6.280;2023-12-07T06:58:10;37.88;;;14.60;;
25153;SDS011;47555;51.038;6.280;2023-12-07T07:00:36;32.05;;;13.40;;
25153;SDS011;47555;51.038;6.280;2023-12-07T07:03:02;39.05;;;16.10;;
25153;SDS011;47555;51.038;6.280;2023-12-07T07:05:28;39.90;;;16.38;;
25153;SDS011;47555;51.038;6.280;2023-12-07T07:07:54;37.97;;;16.23;;
25153;SDS011;47555;51.038;6.280;2023-12-07T07:10:20;36.08;;;17.10;;
25153;SDS011;47555;51.038;6.280;2023-12-07T07:12:46;34.92;;;14.75;;
25153;SDS011;47555;51.038;6.280;2023-12-07T07:15:12;38.90;;;15.77;;
25153;SDS011;47555;51.038;6.280;2023-12-07T07:17:38;38.33;;;15.68;;
25153;SDS011;47555;51.038;6.280;2023-12-07T07:20:05;40.25;;;16.27;;
25153;SDS011;47555;51.038;6.280;2023-12-07T07:22:31;39.75;;;14.38;;
25153;SDS011;47555;51.038;6.280;2023-12-07T07:24:57;41.25;;;14.80;;
25153;SDS011;47555;51.038;6.280;2023-12-07T07:27:23;39.65;;;15.95;;
25153;SDS011;47555;51.038;6.280;2023-12-07T07:29:49;40.20;;;15.48;;
25153;SDS011;47555;51.038;6.280;2023-12-07T07:32:15;41.47;;;15.40;;
25153;SDS011;47555;51.038;6.280;2023-12-07T07:34:41;28.88;;;13.82;;
25153;SDS011;47555;51.038;6.280;2023-12-07T07:37:07;40.65;;;14.90;;
25153;SDS011;47555;51.038;6.280;2023-12-07T07:39:33;41.13;;;14.98;;
25153;SDS011;47555;51.038;6.280;2023-12-07T07:41:59;39.78;;;15.02;;
25153;SDS011;47555;51.038;6.280;2023-12-07T07:44:25;36.67;;;14.50;;
25153;SDS011;47555;51.038;6.280;2023-12-07T07:46:51;42.20;;;15.88;;
25153;SDS011;47555;51.038;6.280;2023-12-07T07:49:17;54.35;;;18.00;;
25153;SDS011;47555;51.038;6.280;2023-12-07T07:51:43;43.42;;;17.92;;
25153;SDS011;47555;51.038;6.280;2023-12-07T07:54:09;46.38;;;16.55;;
25153;SDS011;47555;51.038;6.280;2023-12-07T07:56:35;47.83;;;17.30;;
25153;SDS011;47555;51.038;6.280;2023-12-07T07:59:01;46.25;;;17.13;;
25153;SDS011;47555;51.038;6.280;2023-12-07T08:01:27;37.08;;;16.30;;
25153;SDS011;47555;51.038;6.280;2023-12-07T08:03:53;38.03;;;15.60;;
25153;SDS011;47555;51.038;6.280;2023-12-07T08:06:19;41.88;;;17.08;;
25153;SDS011;47555;51.038;6.280;2023-12-07T08:08:45;38.95;;;15.32;;
25153;SDS011;47555;51.038;6.280;2023-12-07T08:11:13;42.47;;;16.75;;
25153;SDS011;47555;51.038;6.280;2023-12-07T08:13:40;35.85;;;14.82;;
25153;SDS011;47555;51.038;6.280;2023-12-07T08:16:08;53.85;;;17.30;;
25153;SDS011;47555;51.038;6.280;2023-12-07T08:18:34;45.80;;;15.98;;
25153;SDS011;47555;51.038;6.280;2023-12-07T08:21:01;38.78;;;15.55;;
25153;SDS011;47555;51.038;6.280;2023-12-07T08:23:27;35.00;;;14.68;;
25153;SDS011;47555;51.038;6.280;2023-12-07T08:25:53;38.05;;;14.95;;
25153;SDS011;47555;51.038;6.280;2023-12-07T08:28:22;41.72;;;16.38;;
25153;SDS011;47555;51.038;6.280;2023-12-07T08:30:48;37.80;;;14.55;;
25153;SDS011;47555;51.038;6.280;2023-12-07T08:33:14;51.00;;;17.27;;
25153;SDS011;47555;51.038;6.280;2023-12-07T08:35:40;45.00;;;17.98;;
25153;SDS011;47555;51.038;6.280;2023-12-07T08:38:05;48.83;;;18.50;;
25153;SDS011;47555;51.038;6.280;2023-12-07T08:40:31;51.88;;;19.33;;
25153;SDS011;47555;51.038;6.280;2023-12-07T08:42:57;45.28;;;16.98;;
25153;SDS011;47555;51.038;6.280;2023-12-07T08:45:23;44.13;;;15.88;;
25153;SDS011;47555;51.038;6.280;2023-12-07T08:47:49;39.70;;;16.27;;
25153;SDS011;47555;51.038;6.280;2023-12-07T08:50:15;44.72;;;18.02;;
25153;SDS011;47555;51.038;6.280;2023-12-07T08:52:41;39.55;;;16.10;;
25153;SDS011;47555;51.038;6.280;2023-12-07T08:55:07;36.95;;;15.82;;
25153;SDS011;47555;51.038;6.280;2023-12-07T08:57:33;33.47;;;13.93;;
25153;SDS011;47555;51.038;6.280;2023-12-07T08:59:59;34.60;;;15.10;;
25153;SDS011;47555;51.038;6.280;2023-12-07T09:02:25;36.00;;;15.82;;
25153;SDS011;47555;51.038;6.280;2023-12-07T09:04:51;36.88;;;16.95;;
25153;SDS011;47555;51.038;6.280;2023-12-07T09:07:17;40.92;;;17.35;;
25153;SDS011;47555;51.038;6.280;2023-12-07T09:09:44;43.05;;;17.08;;
25153;SDS011;47555;51.038;6.280;2023-12-07T09:12:13;40.45;;;16.48;;
25153;SDS011;47555;51.038;6.280;2023-12-07T09:14:39;43.22;;;17.63;;
25153;SDS011;47555;51.038;6.280;2023-12-07T09:17:05;46.15;;;17.20;;
25153;SDS011;47555;51.038;6.280;2023-12-07T09:19:31;40.92;;;17.70;;
25153;SDS011;47555;51.038;6.280;2023-12-07T09:21:57;41.15;;;17.85;;
25153;SDS011;47555;51.038;6.280;2023-12-07T09:24:23;43.08;;;17.15;;
25153;SDS011;47555;51.038;6.280;2023-12-07T09:26:49;34.42;;;16.55;;
25153;SDS011;47555;51.038;6.280;2023-12-07T09:29:15;35.17;;;15.15;;
25153;SDS011;47555;51.038;6.280;2023-12-07T09:31:41;31.10;;;13.75;;
25153;SDS011;47555;51.038;6.280;2023-12-07T09:34:07;25.17;;;12.45;;
25153;SDS011;47555;51.038;6.280;2023-12-07T09:36:33;23.38;;;12.60;;
25153;SDS011;47555;51.038;6.280;2023-12-07T09:38:59;22.48;;;11.82;;
25153;SDS011;47555;51.038;6.280;2023-12-07T09:41:26;23.45;;;10.93;;
25153;SDS011;47555;51.038;6.280;2023-12-07T09:43:52;27.73;;;12.27;;
25153;SDS011;47555;51.038;6.280;2023-12-07T09:46:19;19.65;;;11.07;;
25153;SDS011;47555;51.038;6.280;2023-12-07T09:48:44;17.83;;;10.63;;
25153;SDS011;47555;51.038;6.280;2023-12-07T09:51:13;20.70;;;10.18;;
25153;SDS011;47555;51.038;6.280;2023-12-07T09:53:41;14.50;;;8.88;;
25153;SDS011;47555;51.038;6.280;2023-12-07T09:56:08;16.77;;;8.77;;
25153;SDS011;47555;51.038;6.280;2023-12-07T09:58:35;15.70;;;9.02;;
25153;SDS011;47555;51.038;6.280;2023-12-07T10:01:01;15.60;;;9.77;;
25153;SDS011;47555;51.038;6.280;2023-12-07T10:03:27;17.02;;;9.70;;
25153;SDS011;47555;51.038;6.280;2023-12-07T10:05:56;17.75;;;9.85;;
25153;SDS011;47555;51.038;6.280;2023-12-07T10:08:30;18.55;;;9.90;;
25153;SDS011;47555;51.038;6.280;2023-12-07T10:13:29;17.90;;;9.60;;
25153;SDS011;47555;51.038;6.280;2023-12-07T10:16:11;16.23;;;8.80;;
25153;SDS011;47555;51.038;6.280;2023-12-07T10:18:37;19.10;;;9.25;;
25153;SDS011;47555;51.038;6.280;2023-12-07T10:21:05;15.32;;;8.73;;
25153;SDS011;47555;51.038;6.280;2023-12-07T10:23:31;12.93;;;9.27;;
25153;SDS011;47555;51.038;6.280;2023-12-07T10:25:57;12.82;;;7.97;;
25153;SDS011;47555;51.038;6.280;2023-12-07T10:28:25;16.90;;;8.18;;
25153;SDS011;47555;51.038;6.280;2023-12-07T10:30:51;12.15;;;7.78;;
25153;SDS011;47555;51.038;6.280;2023-12-07T10:33:19;16.95;;;9.65;;
25153;SDS011;47555;51.038;6.280;2023-12-07T10:35:46;15.52;;;7.63;;
25153;SDS011;47555;51.038;6.280;2023-12-07T10:38:16;17.42;;;8.18;;
25153;SDS011;47555;51.038;6.280;2023-12-07T10:40:43;14.88;;;8.60;;
25153;SDS011;47555;51.038;6.280;2023-12-07T10:43:09;15.48;;;7.70;;
25153;SDS011;47555;51.038;6.280;2023-12-07T10:45:36;15.65;;;7.90;;
25153;SDS011;47555;51.038;6.280;2023-12-07T10:48:06;14.65;;;8.02;;
25153;SDS011;47555;51.038;6.280;2023-12-07T10:50:36;16.35;;;8.63;;
25153;SDS011;47555;51.038;6.280;2023-12-07T10:53:29;13.48;;;7.50;;
25153;SDS011;47555;51.038;6.280;2023-12-07T10:55:55;14.85;;;8.27;;
25153;SDS011;47555;51.038;6.280;2023-12-07T10:58:24;14.65;;;7.75;;
25153;SDS011;47555;51.038;6.280;2023-12-07T11:00:52;15.18;;;7.97;;
25153;SDS011;47555;51.038;6.280;2023-12-07T11:03:18;13.77;;;8.07;;
25153;SDS011;47555;51.038;6.280;2023-12-07T11:05:46;13.20;;;7.30;;
25153;SDS011;47555;51.038;6.280;2023-12-07T11:08:21;15.82;;;7.72;;
25153;SDS011;47555;51.038;6.280;2023-12-07T11:13:36;17.27;;;8.32;;
25153;SDS011;47555;51.038;6.280;2023-12-07T11:16:03;14.32;;;7.88;;
25153;SDS011;47555;51.038;6.280;2023-12-07T11:18:29;14.90;;;8.32;;
25153;SDS011;47555;51.038;6.280;2023-12-07T11:20:56;12.85;;;7.20;;
25153;SDS011;47555;51.038;6.280;2023-12-07T11:23:22;17.67;;;7.82;;
25153;SDS011;47555;51.038;6.280;2023-12-07T11:25:48;12.35;;;6.65;;
25153;SDS011;47555;51.038;6.280;2023-12-07T11:28:15;13.60;;;6.90;;
25153;SDS011;47555;51.038;6.280;2023-12-07T11:30:42;15.05;;;7.13;;
25153;SDS011;47555;51.038;6.280;2023-12-07T11:33:08;13.65;;;7.18;;
25153;SDS011;47555;51.038;6.280;2023-12-07T11:38:20;13.02;;;7.05;;
25153;SDS011;47555;51.038;6.280;2023-12-07T11:40:45;10.15;;;6.20;;
25153;SDS011;47555;51.038;6.280;2023-12-07T11:43:16;12.88;;;6.63;;
25153;SDS011;47555;51.038;6.280;2023-12-07T11:45:48;12.98;;;7.13;;
25153;SDS011;47555;51.038;6.280;2023-12-07T11:48:15;14.30;;;6.22;;
25153;SDS011;47555;51.038;6.280;2023-12-07T11:51:02;10.95;;;6.85;;
25153;SDS011;47555;51.038;6.280;2023-12-07T11:53:32;14.25;;;6.65;;
25153;SDS011;47555;51.038;6.280;2023-12-07T11:55:59;12.85;;;7.03;;
25153;SDS011;47555;51.038;6.280;2023-12-07T11:58:26;10.23;;;6.10;;
25153;SDS011;47555;51.038;6.280;2023-12-07T12:00:52;11.55;;;5.82;;
25153;SDS011;47555;51.038;6.280;2023-12-07T12:03:19;13.07;;;6.93;;
25153;SDS011;47555;51.038;6.280;2023-12-07T12:05:45;11.02;;;6.13;;
25153;SDS011;47555;51.038;6.280;2023-12-07T12:08:11;10.60;;;5.93;;
25153;SDS011;47555;51.038;6.280;2023-12-07T12:10:38;9.07;;;6.40;;
25153;SDS011;47555;51.038;6.280;2023-12-07T12:13:04;14.75;;;6.72;;
25153;SDS011;47555;51.038;6.280;2023-12-07T12:15:30;15.15;;;6.70;;
25153;SDS011;47555;51.038;6.280;2023-12-07T12:17:56;13.05;;;7.05;;
25153;SDS011;47555;51.038;6.280;2023-12-07T12:20:26;14.60;;;5.95;;
25153;SDS011;47555;51.038;6.280;2023-12-07T12:22:52;11.57;;;6.30;;
25153;SDS011;47555;51.038;6.280;2023-12-07T12:25:19;11.40;;;6.30;;
25153;SDS011;47555;51.038;6.280;2023-12-07T12:27:46;12.00;;;6.85;;
25153;SDS011;47555;51.038;6.280;2023-12-07T12:30:12;14.55;;;7.18;;
25153;SDS011;47555;51.038;6.280;2023-12-07T12:32:42;12.43;;;6.85;;
25153;SDS011;47555;51.038;6.280;2023-12-07T12:35:08;12.70;;;6.82;;
25153;SDS011;47555;51.038;6.280;2023-12-07T12:37:34;11.95;;;6.47;;
25153;SDS011;47555;51.038;6.280;2023-12-07T12:40:05;12.07;;;6.75;;
25153;SDS011;47555;51.038;6.280;2023-12-07T12:42:31;14.70;;;6.93;;
25153;SDS011;47555;51.038;6.280;2023-12-07T12:44:57;16.02;;;6.85;;
25153;SDS011;47555;51.038;6.280;2023-12-07T12:47:23;12.45;;;6.25;;
25153;SDS011;47555;51.038;6.280;2023-12-07T12:49:49;13.88;;;6.80;;
25153;SDS011;47555;51.038;6.280;2023-12-07T12:52:16;12.48;;;6.38;;
25153;SDS011;47555;51.038;6.280;2023-12-07T12:54:45;11.80;;;7.30;;
25153;SDS011;47555;51.038;6.280;2023-12-07T12:57:11;12.57;;;7.07;;
25153;SDS011;47555;51.038;6.280;2023-12-07T12:59:39;12.40;;;7.07;;
25153;SDS011;47555;51.038;6.280;2023-12-07T13:02:05;11.45;;;7.00;;
25153;SDS011;47555;51.038;6.280;2023-12-07T13:04:31;17.73;;;7.55;;
25153;SDS011;47555;51.038;6.280;2023-12-07T13:06:57;12.05;;;7.00;;
25153;SDS011;47555;51.038;6.280;2023-12-07T13:09:23;13.57;;;7.00;;
25153;SDS011;47555;51.038;6.280;2023-12-07T13:11:49;13.93;;;6.95;;
25153;SDS011;47555;51.038;6.280;2023-12-07T13:14:14;14.93;;;7.13;;
25153;SDS011;47555;51.038;6.280;2023-12-07T13:16:42;15.48;;;6.82;;
25153;SDS011;47555;51.038;6.280;2023-12-07T13:19:08;13.40;;;7.75;;
25153;SDS011;47555;51.038;6.280;2023-12-07T13:21:34;13.43;;;7.57;;
25153;SDS011;47555;51.038;6.280;2023-12-07T13:24:00;13.55;;;7.25;;
25153;SDS011;47555;51.038;6.280;2023-12-07T13:26:29;11.88;;;6.22;;
25153;SDS011;47555;51.038;6.280;2023-12-07T13:28:55;15.68;;;7.30;;
25153;SDS011;47555;51.038;6.280;2023-12-07T13:31:21;14.63;;;6.32;;
25153;SDS011;47555;51.038;6.280;2023-12-07T13:33:47;12.90;;;6.97;;
25153;SDS011;47555;51.038;6.280;2023-12-07T13:36:14;12.25;;;6.68;;
25153;SDS011;47555;51.038;6.280;2023-12-07T13:38:42;15.30;;;6.32;;
25153;SDS011;47555;51.038;6.280;2023-12-07T13:41:08;11.55;;;6.63;;
25153;SDS011;47555;51.038;6.280;2023-12-07T13:43:34;12.88;;;7.03;;
25153;SDS011;47555;51.038;6.280;2023-12-07T13:46:00;14.93;;;6.90;;
25153;SDS011;47555;51.038;6.280;2023-12-07T13:48:26;13.35;;;6.90;;
25153;SDS011;47555;51.038;6.280;2023-12-07T13:50:52;13.30;;;6.82;;
25153;SDS011;47555;51.038;6.280;2023-12-07T13:53:18;13.50;;;7.40;;
25153;SDS011;47555;51.038;6.280;2023-12-07T13:55:44;13.80;;;7.50;;
25153;SDS011;47555;51.038;6.280;2023-12-07T13:58:11;11.30;;;6.63;;
25153;SDS011;47555;51.038;6.280;2023-12-07T14:00:37;12.88;;;7.00;;
25153;SDS011;47555;51.038;6.280;2023-12-07T14:03:03;15.82;;;8.02;;
25153;SDS011;47555;51.038;6.280;2023-12-07T14:05:29;16.73;;;7.03;;
25153;SDS011;47555;51.038;6.280;2023-12-07T14:07:56;12.95;;;6.78;;
25153;SDS011;47555;51.038;6.280;2023-12-07T14:10:22;13.48;;;6.70;;
25153;SDS011;47555;51.038;6.280;2023-12-07T14:12:48;15.77;;;6.75;;
25153;SDS011;47555;51.038;6.280;2023-12-07T14:15:14;15.63;;;7.30;;
25153;SDS011;47555;51.038;6.280;2023-12-07T14:17:40;15.98;;;7.38;;
25153;SDS011;47555;51.038;6.280;2023-12-07T14:20:06;14.40;;;8.60;;
25153;SDS011;47555;51.038;6.280;2023-12-07T14:22:33;15.73;;;7.65;;
25153;SDS011;47555;51.038;6.280;2023-12-07T14:24:59;13.25;;;6.43;;
25153;SDS011;47555;51.038;6.280;2023-12-07T14:27:26;13.18;;;6.70;;
25153;SDS011;47555;51.038;6.280;2023-12-07T14:29:52;13.95;;;7.00;;
25153;SDS011;47555;51.038;6.280;2023-12-07T14:32:18;15.00;;;6.97;;